sensor_id;sensor_type;location;lat;lon;timestamp;temperature;humidity
40868;DHT22;26586;50.708;22.412;2022-08-19T00:01:34;26.30;59.50
40868;DHT22;26586;50.708;22.412;2022-08-19T00:04:04;26.30;59.60
40868;DHT22;26586;50.708;22.412;2022-08-19T00:06:30;26.30;59.60
40868;DHT22;26586;50.708;22.412;2022-08-19T00:08:58;26.30;59.60
40868;DHT22;26586;50.708;22.412;2022-08-19T00:11:26;26.30;59.70
40868;DHT22;26586;50.708;22.412;2022-08-19T00:13:54;26.30;59.70
40868;DHT22;26586;50.708;22.412;2022-08-19T00:16:21;26.20;59.70
40868;DHT22;26586;50.708;22.412;2022-08-19T00:18:48;26.20;59.70
40868;DHT22;26586;50.708;22.412;2022-08-19T00:21:14;26.20;59.80
40868;DHT22;26586;50.708;22.412;2022-08-19T00:23:42;26.20;59.80
40868;DHT22;26586;50.708;22.412;2022-08-19T00:26:09;26.20;59.80
40868;DHT22;26586;50.708;22.412;2022-08-19T00:28:36;26.20;59.90
40868;DHT22;26586;50.708;22.412;2022-08-19T00:31:04;26.20;59.90
40868;DHT22;26586;50.708;22.412;2022-08-19T00:33:32;26.20;60.00
40868;DHT22;26586;50.708;22.412;2022-08-19T00:35:59;26.20;60.00
40868;DHT22;26586;50.708;22.412;2022-08-19T00:38:26;26.10;60.00
40868;DHT22;26586;50.708;22.412;2022-08-19T00:40:55;26.10;59.90
40868;DHT22;26586;50.708;22.412;2022-08-19T00:43:23;26.10;59.90
40868;DHT22;26586;50.708;22.412;2022-08-19T00:45:51;26.10;59.90
40868;DHT22;26586;50.708;22.412;2022-08-19T00:48:18;26.10;60.00
40868;DHT22;26586;50.708;22.412;2022-08-19T00:50:45;26.10;60.10
40868;DHT22;26586;50.708;22.412;2022-08-19T00:53:14;26.10;60.10
40868;DHT22;26586;50.708;22.412;2022-08-19T00:55:44;26.10;60.00
40868;DHT22;26586;50.708;22.412;2022-08-19T00:58:15;26.10;60.00
40868;DHT22;26586;50.708;22.412;2022-08-19T01:00:43;26.10;60.00
40868;DHT22;26586;50.708;22.412;2022-08-19T01:03:12;26.00;60.00
40868;DHT22;26586;50.708;22.412;2022-08-19T01:05:40;26.00;60.00
40868;DHT22;26586;50.708;22.412;2022-08-19T01:08:07;26.00;59.90
40868;DHT22;26586;50.708;22.412;2022-08-19T01:10:39;26.00;59.90
40868;DHT22;26586;50.708;22.412;2022-08-19T01:13:06;26.00;59.80
40868;DHT22;26586;50.708;22.412;2022-08-19T01:15:44;25.90;59.90
40868;DHT22;26586;50.708;22.412;2022-08-19T01:18:13;25.90;59.90
40868;DHT22;26586;50.708;22.412;2022-08-19T01:20:42;25.90;60.10
40868;DHT22;26586;50.708;22.412;2022-08-19T01:23:09;25.90;60.20
40868;DHT22;26586;50.708;22.412;2022-08-19T01:25:42;25.90;60.40
40868;DHT22;26586;50.708;22.412;2022-08-19T01:28:16;25.90;60.40
40868;DHT22;26586;50.708;22.412;2022-08-19T01:30:44;25.90;60.50
40868;DHT22;26586;50.708;22.412;2022-08-19T01:33:10;25.90;60.40
40868;DHT22;26586;50.708;22.412;2022-08-19T01:35:37;25.90;60.50
40868;DHT22;26586;50.708;22.412;2022-08-19T01:38:06;25.90;60.80
40868;DHT22;26586;50.708;22.412;2022-08-19T01:40:36;25.90;60.70
40868;DHT22;26586;50.708;22.412;2022-08-19T01:43:04;25.90;60.50
40868;DHT22;26586;50.708;22.412;2022-08-19T01:45:33;25.80;60.70
40868;DHT22;26586;50.708;22.412;2022-08-19T01:48:00;25.80;60.70
40868;DHT22;26586;50.708;22.412;2022-08-19T01:50:26;25.80;60.70
40868;DHT22;26586;50.708;22.412;2022-08-19T01:52:53;25.80;60.50
40868;DHT22;26586;50.708;22.412;2022-08-19T01:55:21;25.80;60.60
40868;DHT22;26586;50.708;22.412;2022-08-19T01:57:53;25.80;60.50
40868;DHT22;26586;50.708;22.412;2022-08-19T02:00:24;25.70;60.60
40868;DHT22;26586;50.708;22.412;2022-08-19T02:02:50;25.80;60.70
40868;DHT22;26586;50.708;22.412;2022-08-19T02:05:16;25.80;60.70
40868;DHT22;26586;50.708;22.412;2022-08-19T02:07:44;25.70;60.60
40868;DHT22;26586;50.708;22.412;2022-08-19T02:10:18;25.70;60.70
40868;DHT22;26586;50.708;22.412;2022-08-19T02:12:45;25.70;60.80
40868;DHT22;26586;50.708;22.412;2022-08-19T02:15:12;25.70;60.70
40868;DHT22;26586;50.708;22.412;2022-08-19T02:17:39;25.70;60.80
40868;DHT22;26586;50.708;22.412;2022-08-19T02:20:05;25.70;60.90
40868;DHT22;26586;50.708;22.412;2022-08-19T02:22:32;25.70;60.80
40868;DHT22;26586;50.708;22.412;2022-08-19T02:24:58;25.70;61.60
40868;DHT22;26586;50.708;22.412;2022-08-19T02:27:25;25.70;60.90
40868;DHT22;26586;50.708;22.412;2022-08-19T02:29:51;25.70;60.80
40868;DHT22;26586;50.708;22.412;2022-08-19T02:32:18;25.70;60.80
40868;DHT22;26586;50.708;22.412;2022-08-19T02:34:46;25.60;60.80
40868;DHT22;26586;50.708;22.412;2022-08-19T02:37:13;25.60;60.90
40868;DHT22;26586;50.708;22.412;2022-08-19T02:39:58;25.60;61.00
40868;DHT22;26586;50.708;22.412;2022-08-19T02:42:24;25.60;61.10
40868;DHT22;26586;50.708;22.412;2022-08-19T02:44:51;25.60;61.30
40868;DHT22;26586;50.708;22.412;2022-08-19T02:47:21;25.60;61.50
40868;DHT22;26586;50.708;22.412;2022-08-19T02:49:47;25.60;61.40
40868;DHT22;26586;50.708;22.412;2022-08-19T02:52:16;25.60;61.60
40868;DHT22;26586;50.708;22.412;2022-08-19T02:54:42;25.60;61.50
40868;DHT22;26586;50.708;22.412;2022-08-19T02:57:09;25.50;61.40
40868;DHT22;26586;50.708;22.412;2022-08-19T02:59:35;25.50;61.50
40868;DHT22;26586;50.708;22.412;2022-08-19T03:02:01;25.60;61.40
40868;DHT22;26586;50.708;22.412;2022-08-19T03:04:28;25.60;61.60
40868;DHT22;26586;50.708;22.412;2022-08-19T03:06:55;25.50;61.50
40868;DHT22;26586;50.708;22.412;2022-08-19T03:09:21;25.50;61.50
40868;DHT22;26586;50.708;22.412;2022-08-19T03:11:48;25.50;61.50
40868;DHT22;26586;50.708;22.412;2022-08-19T03:14:14;25.50;61.70
40868;DHT22;26586;50.708;22.412;2022-08-19T03:16:44;25.50;61.60
40868;DHT22;26586;50.708;22.412;2022-08-19T03:19:10;25.50;61.70
40868;DHT22;26586;50.708;22.412;2022-08-19T03:21:36;25.50;61.70
40868;DHT22;26586;50.708;22.412;2022-08-19T03:24:05;25.50;61.90
40868;DHT22;26586;50.708;22.412;2022-08-19T03:26:32;25.50;61.90
40868;DHT22;26586;50.708;22.412;2022-08-19T03:29:02;25.40;61.40
40868;DHT22;26586;50.708;22.412;2022-08-19T03:31:29;25.40;61.30
40868;DHT22;26586;50.708;22.412;2022-08-19T03:33:55;25.40;61.40
40868;DHT22;26586;50.708;22.412;2022-08-19T03:36:25;25.40;61.40
40868;DHT22;26586;50.708;22.412;2022-08-19T03:38:54;25.40;61.30
40868;DHT22;26586;50.708;22.412;2022-08-19T03:41:24;25.40;61.40
40868;DHT22;26586;50.708;22.412;2022-08-19T03:43:52;25.40;61.30
40868;DHT22;26586;50.708;22.412;2022-08-19T03:46:25;25.40;61.20
40868;DHT22;26586;50.708;22.412;2022-08-19T03:48:53;25.30;61.20
40868;DHT22;26586;50.708;22.412;2022-08-19T03:51:32;25.40;61.50
40868;DHT22;26586;50.708;22.412;2022-08-19T03:54:01;25.30;61.30
40868;DHT22;26586;50.708;22.412;2022-08-19T03:56:29;25.30;61.50
40868;DHT22;26586;50.708;22.412;2022-08-19T03:58:56;25.30;61.50
40868;DHT22;26586;50.708;22.412;2022-08-19T04:01:26;25.30;61.20
40868;DHT22;26586;50.708;22.412;2022-08-19T04:03:53;25.30;61.50
40868;DHT22;26586;50.708;22.412;2022-08-19T04:06:30;25.30;61.90
40868;DHT22;26586;50.708;22.412;2022-08-19T04:08:58;25.30;62.00
40868;DHT22;26586;50.708;22.412;2022-08-19T04:11:28;25.30;62.30
40868;DHT22;26586;50.708;22.412;2022-08-19T04:13:55;25.30;62.50
40868;DHT22;26586;50.708;22.412;2022-08-19T04:16:22;25.30;62.60
40868;DHT22;26586;50.708;22.412;2022-08-19T04:18:49;25.30;62.80
40868;DHT22;26586;50.708;22.412;2022-08-19T04:21:20;25.30;62.60
40868;DHT22;26586;50.708;22.412;2022-08-19T04:23:47;25.30;62.60
40868;DHT22;26586;50.708;22.412;2022-08-19T04:26:16;25.30;62.50
40868;DHT22;26586;50.708;22.412;2022-08-19T04:28:43;25.30;62.30
40868;DHT22;26586;50.708;22.412;2022-08-19T04:31:13;25.20;62.50
40868;DHT22;26586;50.708;22.412;2022-08-19T04:33:40;25.20;62.90
40868;DHT22;26586;50.708;22.412;2022-08-19T04:36:07;25.20;63.10
40868;DHT22;26586;50.708;22.412;2022-08-19T04:38:33;25.20;63.20
40868;DHT22;26586;50.708;22.412;2022-08-19T04:40:59;25.20;63.20
40868;DHT22;26586;50.708;22.412;2022-08-19T04:43:45;25.20;62.90
40868;DHT22;26586;50.708;22.412;2022-08-19T04:46:14;25.20;62.70
40868;DHT22;26586;50.708;22.412;2022-08-19T04:48:40;25.20;63.00
40868;DHT22;26586;50.708;22.412;2022-08-19T04:51:09;25.20;63.10
40868;DHT22;26586;50.708;22.412;2022-08-19T04:53:37;25.20;63.30
40868;DHT22;26586;50.708;22.412;2022-08-19T04:56:07;25.20;63.60
40868;DHT22;26586;50.708;22.412;2022-08-19T04:58:34;25.20;63.70
40868;DHT22;26586;50.708;22.412;2022-08-19T05:01:01;25.20;64.20
40868;DHT22;26586;50.708;22.412;2022-08-19T05:03:27;25.20;64.40
40868;DHT22;26586;50.708;22.412;2022-08-19T05:05:53;25.20;64.80
40868;DHT22;26586;50.708;22.412;2022-08-19T05:08:21;25.20;64.70
40868;DHT22;26586;50.708;22.412;2022-08-19T05:10:49;25.20;64.90
40868;DHT22;26586;50.708;22.412;2022-08-19T05:13:17;25.20;64.80
40868;DHT22;26586;50.708;22.412;2022-08-19T05:15:44;25.20;65.00
40868;DHT22;26586;50.708;22.412;2022-08-19T05:18:18;25.20;65.00
40868;DHT22;26586;50.708;22.412;2022-08-19T05:21:12;25.20;65.00
40868;DHT22;26586;50.708;22.412;2022-08-19T05:23:57;25.30;65.40
40868;DHT22;26586;50.708;22.412;2022-08-19T05:26:24;25.30;65.60
40868;DHT22;26586;50.708;22.412;2022-08-19T05:28:54;25.40;65.70
40868;DHT22;26586;50.708;22.412;2022-08-19T05:31:21;25.40;65.50
40868;DHT22;26586;50.708;22.412;2022-08-19T05:33:47;25.40;65.10
40868;DHT22;26586;50.708;22.412;2022-08-19T05:36:14;25.40;66.10
40868;DHT22;26586;50.708;22.412;2022-08-19T05:38:40;25.50;65.50
40868;DHT22;26586;50.708;22.412;2022-08-19T05:41:11;25.50;65.30
40868;DHT22;26586;50.708;22.412;2022-08-19T05:43:37;25.50;65.40
40868;DHT22;26586;50.708;22.412;2022-08-19T05:46:06;25.50;65.30
40868;DHT22;26586;50.708;22.412;2022-08-19T05:48:34;25.60;66.00
40868;DHT22;26586;50.708;22.412;2022-08-19T05:51:07;25.60;65.90
40868;DHT22;26586;50.708;22.412;2022-08-19T05:53:34;25.70;65.80
40868;DHT22;26586;50.708;22.412;2022-08-19T05:56:08;25.80;65.60
40868;DHT22;26586;50.708;22.412;2022-08-19T05:58:36;25.80;65.40
40868;DHT22;26586;50.708;22.412;2022-08-19T06:01:04;25.90;65.40
40868;DHT22;26586;50.708;22.412;2022-08-19T06:03:35;25.90;65.70
40868;DHT22;26586;50.708;22.412;2022-08-19T06:06:04;26.00;65.70
40868;DHT22;26586;50.708;22.412;2022-08-19T06:08:31;26.10;65.60
40868;DHT22;26586;50.708;22.412;2022-08-19T06:10:57;26.10;65.50
40868;DHT22;26586;50.708;22.412;2022-08-19T06:13:23;26.10;65.50
40868;DHT22;26586;50.708;22.412;2022-08-19T06:15:51;26.20;65.70
40868;DHT22;26586;50.708;22.412;2022-08-19T06:18:17;26.30;65.60
40868;DHT22;26586;50.708;22.412;2022-08-19T06:20:43;26.30;65.30
40868;DHT22;26586;50.708;22.412;2022-08-19T06:23:09;26.30;65.30
40868;DHT22;26586;50.708;22.412;2022-08-19T06:25:35;26.40;65.30
40868;DHT22;26586;50.708;22.412;2022-08-19T06:28:02;26.50;65.30
40868;DHT22;26586;50.708;22.412;2022-08-19T06:30:28;26.50;65.20
40868;DHT22;26586;50.708;22.412;2022-08-19T06:32:54;26.60;65.10
40868;DHT22;26586;50.708;22.412;2022-08-19T06:35:21;26.60;65.20
40868;DHT22;26586;50.708;22.412;2022-08-19T06:37:47;26.70;65.00
40868;DHT22;26586;50.708;22.412;2022-08-19T06:40:13;26.70;65.00
40868;DHT22;26586;50.708;22.412;2022-08-19T06:42:39;26.80;64.90
40868;DHT22;26586;50.708;22.412;2022-08-19T06:45:06;26.90;64.90
40868;DHT22;26586;50.708;22.412;2022-08-19T06:47:34;27.00;64.90
40868;DHT22;26586;50.708;22.412;2022-08-19T06:50:01;27.10;64.90
40868;DHT22;26586;50.708;22.412;2022-08-19T06:52:30;27.10;64.70
40868;DHT22;26586;50.708;22.412;2022-08-19T06:54:56;27.10;64.50
40868;DHT22;26586;50.708;22.412;2022-08-19T06:57:24;27.20;64.60
40868;DHT22;26586;50.708;22.412;2022-08-19T06:59:51;27.30;64.60
40868;DHT22;26586;50.708;22.412;2022-08-19T07:02:18;27.40;64.40
40868;DHT22;26586;50.708;22.412;2022-08-19T07:04:44;27.40;64.20
40868;DHT22;26586;50.708;22.412;2022-08-19T07:07:13;27.50;64.10
40868;DHT22;26586;50.708;22.412;2022-08-19T07:09:42;27.50;64.10
40868;DHT22;26586;50.708;22.412;2022-08-19T07:12:11;27.60;64.00
40868;DHT22;26586;50.708;22.412;2022-08-19T07:14:39;27.70;63.80
40868;DHT22;26586;50.708;22.412;2022-08-19T07:17:08;27.80;63.70
40868;DHT22;26586;50.708;22.412;2022-08-19T07:19:36;27.80;63.60
40868;DHT22;26586;50.708;22.412;2022-08-19T07:22:05;27.90;63.60
40868;DHT22;26586;50.708;22.412;2022-08-19T07:24:31;27.90;63.50
40868;DHT22;26586;50.708;22.412;2022-08-19T07:26:59;28.00;63.40
40868;DHT22;26586;50.708;22.412;2022-08-19T07:29:30;28.10;63.50
40868;DHT22;26586;50.708;22.412;2022-08-19T07:31:59;28.20;63.40
40868;DHT22;26586;50.708;22.412;2022-08-19T07:34:28;28.20;63.30
40868;DHT22;26586;50.708;22.412;2022-08-19T07:36:55;28.30;63.10
40868;DHT22;26586;50.708;22.412;2022-08-19T07:39:25;28.30;62.60
40868;DHT22;26586;50.708;22.412;2022-08-19T07:41:52;28.40;62.50
40868;DHT22;26586;50.708;22.412;2022-08-19T07:44:20;28.50;62.30
40868;DHT22;26586;50.708;22.412;2022-08-19T07:46:52;28.50;62.30
40868;DHT22;26586;50.708;22.412;2022-08-19T07:49:19;28.60;62.50
40868;DHT22;26586;50.708;22.412;2022-08-19T07:52:08;28.60;62.10
40868;DHT22;26586;50.708;22.412;2022-08-19T07:54:36;28.70;62.10
40868;DHT22;26586;50.708;22.412;2022-08-19T07:57:04;28.80;60.90
40868;DHT22;26586;50.708;22.412;2022-08-19T07:59:30;28.90;60.90
40868;DHT22;26586;50.708;22.412;2022-08-19T08:01:57;28.90;60.60
40868;DHT22;26586;50.708;22.412;2022-08-19T08:04:27;29.00;60.40
40868;DHT22;26586;50.708;22.412;2022-08-19T08:07:12;29.10;60.40
40868;DHT22;26586;50.708;22.412;2022-08-19T08:09:57;29.20;59.90
40868;DHT22;26586;50.708;22.412;2022-08-19T08:12:30;29.20;58.90
40868;DHT22;26586;50.708;22.412;2022-08-19T08:14:59;29.20;58.90
40868;DHT22;26586;50.708;22.412;2022-08-19T08:17:31;29.30;59.50
40868;DHT22;26586;50.708;22.412;2022-08-19T08:19:57;29.30;59.70
40868;DHT22;26586;50.708;22.412;2022-08-19T08:22:24;29.40;58.70
40868;DHT22;26586;50.708;22.412;2022-08-19T08:25:15;29.50;58.20
40868;DHT22;26586;50.708;22.412;2022-08-19T08:27:43;29.50;58.50
40868;DHT22;26586;50.708;22.412;2022-08-19T08:30:22;29.60;58.90
40868;DHT22;26586;50.708;22.412;2022-08-19T08:32:49;29.60;59.00
40868;DHT22;26586;50.708;22.412;2022-08-19T08:35:18;29.70;59.20
40868;DHT22;26586;50.708;22.412;2022-08-19T08:37:45;29.70;58.80
40868;DHT22;26586;50.708;22.412;2022-08-19T08:43:06;29.80;58.70
40868;DHT22;26586;50.708;22.412;2022-08-19T08:45:36;29.90;58.30
40868;DHT22;26586;50.708;22.412;2022-08-19T08:48:15;29.90;58.50
40868;DHT22;26586;50.708;22.412;2022-08-19T08:50:45;30.00;58.60
40868;DHT22;26586;50.708;22.412;2022-08-19T08:53:19;30.00;58.20
40868;DHT22;26586;50.708;22.412;2022-08-19T08:55:46;30.10;58.10
40868;DHT22;26586;50.708;22.412;2022-08-19T08:58:36;30.10;57.30
40868;DHT22;26586;50.708;22.412;2022-08-19T09:01:11;30.20;56.90
40868;DHT22;26586;50.708;22.412;2022-08-19T09:03:39;30.20;57.00
40868;DHT22;26586;50.708;22.412;2022-08-19T09:06:14;30.30;57.40
40868;DHT22;26586;50.708;22.412;2022-08-19T09:09:03;30.30;55.40
40868;DHT22;26586;50.708;22.412;2022-08-19T09:14:36;30.40;57.70
40868;DHT22;26586;50.708;22.412;2022-08-19T09:17:09;30.50;57.40
40868;DHT22;26586;50.708;22.412;2022-08-19T09:22:19;30.50;57.10
40868;DHT22;26586;50.708;22.412;2022-08-19T09:24:50;30.60;55.50
40868;DHT22;26586;50.708;22.412;2022-08-19T09:27:18;30.60;55.80
40868;DHT22;26586;50.708;22.412;2022-08-19T09:29:46;30.70;56.00
40868;DHT22;26586;50.708;22.412;2022-08-19T09:32:15;30.70;55.70
40868;DHT22;26586;50.708;22.412;2022-08-19T09:34:43;30.70;55.70
40868;DHT22;26586;50.708;22.412;2022-08-19T09:37:09;30.80;55.10
40868;DHT22;26586;50.708;22.412;2022-08-19T09:39:37;30.80;55.50
40868;DHT22;26586;50.708;22.412;2022-08-19T09:42:03;30.90;53.70
40868;DHT22;26586;50.708;22.412;2022-08-19T09:44:30;30.90;52.50
40868;DHT22;26586;50.708;22.412;2022-08-19T09:46:56;31.00;53.40
40868;DHT22;26586;50.708;22.412;2022-08-19T09:49:22;31.00;53.20
40868;DHT22;26586;50.708;22.412;2022-08-19T09:51:51;31.00;54.30
40868;DHT22;26586;50.708;22.412;2022-08-19T09:54:18;31.00;53.20
40868;DHT22;26586;50.708;22.412;2022-08-19T09:56:44;31.10;53.50
40868;DHT22;26586;50.708;22.412;2022-08-19T09:59:10;31.10;54.30
40868;DHT22;26586;50.708;22.412;2022-08-19T10:01:38;31.10;52.30
40868;DHT22;26586;50.708;22.412;2022-08-19T10:04:04;31.10;51.20
40868;DHT22;26586;50.708;22.412;2022-08-19T10:06:36;31.20;53.70
40868;DHT22;26586;50.708;22.412;2022-08-19T10:09:07;31.20;53.60
40868;DHT22;26586;50.708;22.412;2022-08-19T10:11:36;31.20;54.00
40868;DHT22;26586;50.708;22.412;2022-08-19T10:14:06;31.20;54.30
40868;DHT22;26586;50.708;22.412;2022-08-19T10:16:33;31.20;53.80
40868;DHT22;26586;50.708;22.412;2022-08-19T10:18:59;31.30;54.20
40868;DHT22;26586;50.708;22.412;2022-08-19T10:21:29;31.30;53.70
40868;DHT22;26586;50.708;22.412;2022-08-19T10:23:59;31.30;53.40
40868;DHT22;26586;50.708;22.412;2022-08-19T10:26:30;31.40;54.70
40868;DHT22;26586;50.708;22.412;2022-08-19T10:28:57;31.40;53.50
40868;DHT22;26586;50.708;22.412;2022-08-19T10:31:24;31.40;53.40
40868;DHT22;26586;50.708;22.412;2022-08-19T10:33:52;31.40;54.60
40868;DHT22;26586;50.708;22.412;2022-08-19T10:36:29;31.50;54.30
40868;DHT22;26586;50.708;22.412;2022-08-19T10:38:57;31.40;54.90
40868;DHT22;26586;50.708;22.412;2022-08-19T10:41:30;31.50;55.60
40868;DHT22;26586;50.708;22.412;2022-08-19T10:44:01;31.50;55.40
40868;DHT22;26586;50.708;22.412;2022-08-19T10:46:29;31.50;56.10
40868;DHT22;26586;50.708;22.412;2022-08-19T10:48:59;31.50;55.60
40868;DHT22;26586;50.708;22.412;2022-08-19T10:51:26;31.60;55.30
40868;DHT22;26586;50.708;22.412;2022-08-19T10:54:11;31.50;56.40
40868;DHT22;26586;50.708;22.412;2022-08-19T10:56:37;31.60;54.90
40868;DHT22;26586;50.708;22.412;2022-08-19T10:59:28;31.60;55.80
40868;DHT22;26586;50.708;22.412;2022-08-19T11:01:59;31.60;53.40
40868;DHT22;26586;50.708;22.412;2022-08-19T11:04:26;31.70;54.90
40868;DHT22;26586;50.708;22.412;2022-08-19T11:06:52;31.70;52.10
40868;DHT22;26586;50.708;22.412;2022-08-19T11:09:22;31.70;52.40
40868;DHT22;26586;50.708;22.412;2022-08-19T11:11:53;31.80;53.40
40868;DHT22;26586;50.708;22.412;2022-08-19T11:14:20;31.70;51.80
40868;DHT22;26586;50.708;22.412;2022-08-19T11:16:48;31.80;50.20
40868;DHT22;26586;50.708;22.412;2022-08-19T11:19:15;31.80;49.90
40868;DHT22;26586;50.708;22.412;2022-08-19T11:21:47;31.90;48.20
40868;DHT22;26586;50.708;22.412;2022-08-19T11:24:17;31.90;50.20
40868;DHT22;26586;50.708;22.412;2022-08-19T11:26:44;31.90;50.80
40868;DHT22;26586;50.708;22.412;2022-08-19T11:29:12;31.90;51.20
40868;DHT22;26586;50.708;22.412;2022-08-19T11:31:41;31.90;50.90
40868;DHT22;26586;50.708;22.412;2022-08-19T11:34:11;31.90;51.60
40868;DHT22;26586;50.708;22.412;2022-08-19T11:36:40;31.90;51.30
40868;DHT22;26586;50.708;22.412;2022-08-19T11:39:07;31.90;51.60
40868;DHT22;26586;50.708;22.412;2022-08-19T11:41:34;31.90;52.40
40868;DHT22;26586;50.708;22.412;2022-08-19T11:44:00;31.90;52.90
40868;DHT22;26586;50.708;22.412;2022-08-19T11:46:28;31.90;50.90
40868;DHT22;26586;50.708;22.412;2022-08-19T11:48:59;31.90;52.40
40868;DHT22;26586;50.708;22.412;2022-08-19T11:51:27;31.90;52.50
40868;DHT22;26586;50.708;22.412;2022-08-19T11:53:55;31.90;52.40
40868;DHT22;26586;50.708;22.412;2022-08-19T11:56:22;31.90;52.70
40868;DHT22;26586;50.708;22.412;2022-08-19T11:58:50;31.90;53.30
40868;DHT22;26586;50.708;22.412;2022-08-19T12:01:18;31.90;53.30
40868;DHT22;26586;50.708;22.412;2022-08-19T12:03:47;31.90;53.10
40868;DHT22;26586;50.708;22.412;2022-08-19T12:06:16;31.90;53.30
40868;DHT22;26586;50.708;22.412;2022-08-19T12:08:44;31.90;52.50
40868;DHT22;26586;50.708;22.412;2022-08-19T12:11:12;31.90;49.40
40868;DHT22;26586;50.708;22.412;2022-08-19T12:13:39;31.90;51.10
40868;DHT22;26586;50.708;22.412;2022-08-19T12:16:15;31.90;50.80
40868;DHT22;26586;50.708;22.412;2022-08-19T12:18:43;31.90;51.20
40868;DHT22;26586;50.708;22.412;2022-08-19T12:21:17;31.90;51.90
40868;DHT22;26586;50.708;22.412;2022-08-19T12:23:44;31.90;51.30
40868;DHT22;26586;50.708;22.412;2022-08-19T12:26:13;31.90;52.40
40868;DHT22;26586;50.708;22.412;2022-08-19T12:28:39;31.90;52.00
40868;DHT22;26586;50.708;22.412;2022-08-19T12:31:08;31.90;52.80
40868;DHT22;26586;50.708;22.412;2022-08-19T12:33:35;31.90;52.50
40868;DHT22;26586;50.708;22.412;2022-08-19T12:36:04;31.90;52.40
40868;DHT22;26586;50.708;22.412;2022-08-19T12:38:31;31.90;52.20
40868;DHT22;26586;50.708;22.412;2022-08-19T12:40:58;32.00;52.40
40868;DHT22;26586;50.708;22.412;2022-08-19T12:43:24;31.90;52.80
40868;DHT22;26586;50.708;22.412;2022-08-19T12:45:51;31.90;53.40
40868;DHT22;26586;50.708;22.412;2022-08-19T12:48:17;32.00;53.80
40868;DHT22;26586;50.708;22.412;2022-08-19T12:50:44;32.00;52.70
40868;DHT22;26586;50.708;22.412;2022-08-19T12:53:14;31.90;51.40
40868;DHT22;26586;50.708;22.412;2022-08-19T12:55:41;32.00;50.90
40868;DHT22;26586;50.708;22.412;2022-08-19T12:58:09;31.90;51.30
40868;DHT22;26586;50.708;22.412;2022-08-19T13:00:35;31.90;50.30
40868;DHT22;26586;50.708;22.412;2022-08-19T13:03:01;31.90;52.00
40868;DHT22;26586;50.708;22.412;2022-08-19T13:05:30;31.90;49.50
40868;DHT22;26586;50.708;22.412;2022-08-19T13:07:58;32.00;48.30
40868;DHT22;26586;50.708;22.412;2022-08-19T13:10:33;32.00;48.70
40868;DHT22;26586;50.708;22.412;2022-08-19T13:13:03;32.00;49.40
40868;DHT22;26586;50.708;22.412;2022-08-19T13:15:34;32.00;50.30
40868;DHT22;26586;50.708;22.412;2022-08-19T13:18:00;32.00;51.00
40868;DHT22;26586;50.708;22.412;2022-08-19T13:20:26;32.00;51.80
40868;DHT22;26586;50.708;22.412;2022-08-19T13:22:54;32.00;52.70
40868;DHT22;26586;50.708;22.412;2022-08-19T13:25:21;32.00;49.90
40868;DHT22;26586;50.708;22.412;2022-08-19T13:27:48;32.00;51.10
40868;DHT22;26586;50.708;22.412;2022-08-19T13:30:18;32.00;51.60
40868;DHT22;26586;50.708;22.412;2022-08-19T13:33:08;32.00;52.30
40868;DHT22;26586;50.708;22.412;2022-08-19T13:38:05;32.00;50.60
40868;DHT22;26586;50.708;22.412;2022-08-19T13:40:33;32.00;50.20
40868;DHT22;26586;50.708;22.412;2022-08-19T13:43:00;32.00;50.40
40868;DHT22;26586;50.708;22.412;2022-08-19T13:45:28;31.90;50.40
40868;DHT22;26586;50.708;22.412;2022-08-19T13:47:57;32.00;50.70
40868;DHT22;26586;50.708;22.412;2022-08-19T13:50:27;32.00;50.50
40868;DHT22;26586;50.708;22.412;2022-08-19T13:52:54;32.00;50.30
40868;DHT22;26586;50.708;22.412;2022-08-19T13:55:21;31.90;49.80
40868;DHT22;26586;50.708;22.412;2022-08-19T13:57:59;31.90;50.40
40868;DHT22;26586;50.708;22.412;2022-08-19T14:00:28;32.00;49.30
40868;DHT22;26586;50.708;22.412;2022-08-19T14:02:56;31.90;49.90
40868;DHT22;26586;50.708;22.412;2022-08-19T14:05:24;32.00;50.00
40868;DHT22;26586;50.708;22.412;2022-08-19T14:07:52;32.00;48.70
40868;DHT22;26586;50.708;22.412;2022-08-19T14:10:19;32.00;49.10
40868;DHT22;26586;50.708;22.412;2022-08-19T14:12:46;31.90;49.10
40868;DHT22;26586;50.708;22.412;2022-08-19T14:15:14;31.90;48.60
40868;DHT22;26586;50.708;22.412;2022-08-19T14:17:43;31.90;48.50
40868;DHT22;26586;50.708;22.412;2022-08-19T14:20:11;31.90;49.10
40868;DHT22;26586;50.708;22.412;2022-08-19T14:22:40;31.90;48.50
40868;DHT22;26586;50.708;22.412;2022-08-19T14:25:09;31.90;48.30
40868;DHT22;26586;50.708;22.412;2022-08-19T14:27:37;31.90;48.40
40868;DHT22;26586;50.708;22.412;2022-08-19T14:30:04;31.90;48.30
40868;DHT22;26586;50.708;22.412;2022-08-19T14:32:31;31.90;48.00
40868;DHT22;26586;50.708;22.412;2022-08-19T14:34:57;31.90;46.90
40868;DHT22;26586;50.708;22.412;2022-08-19T14:37:23;31.90;46.80
40868;DHT22;26586;50.708;22.412;2022-08-19T14:39:49;31.90;47.40
40868;DHT22;26586;50.708;22.412;2022-08-19T14:42:16;31.90;46.90
40868;DHT22;26586;50.708;22.412;2022-08-19T14:44:43;31.90;47.40
40868;DHT22;26586;50.708;22.412;2022-08-19T14:47:09;31.80;47.30
40868;DHT22;26586;50.708;22.412;2022-08-19T14:49:36;31.80;48.30
40868;DHT22;26586;50.708;22.412;2022-08-19T14:52:03;31.80;47.70
40868;DHT22;26586;50.708;22.412;2022-08-19T14:54:29;31.80;48.50
40868;DHT22;26586;50.708;22.412;2022-08-19T14:56:55;31.80;48.80
40868;DHT22;26586;50.708;22.412;2022-08-19T14:59:22;31.80;48.30
40868;DHT22;26586;50.708;22.412;2022-08-19T15:01:48;31.70;48.50
40868;DHT22;26586;50.708;22.412;2022-08-19T15:04:14;31.70;48.90
40868;DHT22;26586;50.708;22.412;2022-08-19T15:06:40;31.70;48.60
40868;DHT22;26586;50.708;22.412;2022-08-19T15:09:09;31.70;47.70
40868;DHT22;26586;50.708;22.412;2022-08-19T15:11:36;31.70;47.90
40868;DHT22;26586;50.708;22.412;2022-08-19T15:14:03;31.70;48.70
40868;DHT22;26586;50.708;22.412;2022-08-19T15:16:31;31.70;49.00
40868;DHT22;26586;50.708;22.412;2022-08-19T15:18:58;31.70;49.40
40868;DHT22;26586;50.708;22.412;2022-08-19T15:21:27;31.60;49.50
40868;DHT22;26586;50.708;22.412;2022-08-19T15:23:56;31.60;49.10
40868;DHT22;26586;50.708;22.412;2022-08-19T15:26:22;31.60;49.10
40868;DHT22;26586;50.708;22.412;2022-08-19T15:28:50;31.60;49.20
40868;DHT22;26586;50.708;22.412;2022-08-19T15:31:19;31.60;49.50
40868;DHT22;26586;50.708;22.412;2022-08-19T15:33:45;31.60;49.50
40868;DHT22;26586;50.708;22.412;2022-08-19T15:36:12;31.60;49.80